LEJR Airport Information

Runway Information
Runway 02 Length 7546 ft width 148 ft
Elevation 68 ft Threshold 0 ft Heading 21
Runway 20 Length 7546 ft Width 148 ft
Elevation 93 ft Threshold 0 ft Heading 201
Airport Frequencies
Type APP Name APP Frequency 128.5 MHZ
Type GND Name GND Frequency 121.6 MHZ
Type TWR Name TWR Frequency 118.55 MHZ
Airport Navaids
Type NDB Name Jerez Frequency 433 KHZ
Type VOR-DME Name Jerez Frequency 113000 KHZ
Airport Weather Information & NOTAM
ADDS - METARS form results

(0405 UTC 24 November 2020)
Data provider http://aviationweather.gov/metar/data/
 
METAR text: LEJR 240400Z AUTO 00000KT CAVOK 06/05 Q1023
Conditions at: LEJR (JEREZ (CIV/MIL) , ES) observed 0400 UTC 24 November 2020
Temperature: 6.0°C (43°F)
Dewpoint: 5.0°C (41°F) [RH = 93%]
Pressure (altimeter): 30.21 inches Hg (1023.0 mb)
Winds: calm
Visibility: 6 or more miles (10+ km)
Ceiling: ceiling and visibility are OK
Clouds: unknown
Weather: no significant weather observed at this time

METAR text: LEJR 240330Z AUTO 35002KT CAVOK 07/05 Q1023
Conditions at: LEJR (JEREZ (CIV/MIL) , ES) observed 0330 UTC 24 November 2020
Temperature: 7.0°C (45°F)
Dewpoint: 5.0°C (41°F) [RH = 87%]
Pressure (altimeter): 30.21 inches Hg (1023.0 mb)
Winds: from the N (350 degrees) at 2 MPH (2 knots; 1.0 m/s)
Visibility: 6 or more miles (10+ km)
Ceiling: ceiling and visibility are OK
Clouds: unknown
Weather: no significant weather observed at this time

Forecast for: LEJR (JEREZ (CIV/MIL) , ES)
Text: TAF LEJR 232300Z 2400/2424 04004KT CAVOK TX22/2414Z TN06/2407Z
Forecast period: 0000 to 1100 UTC 24 November 2020
Forecast type: FROM: standard forecast or significant change
Winds: from the NE (40 degrees) at 5 MPH (4 knots; 2.1 m/s)
Visibility: 6 or more miles (10+ km)
Ceiling: unknown
Clouds: missing
Weather: no significant weather forecast for this period
Text: BECMG 2411/2413 19012KT
Forecast period: 1100 UTC 24 November 2020 to 0000 UTC 25 November 2020
Forecast type: BECOMING: Conditions expected to become as follows by 1300 UTC 24 November 2020
Winds: from the S (190 degrees) at 14 MPH (12 knots; 6.2 m/s)
Visibility: 6 or more miles (10+ km)
Ceiling: unknown
Clouds: missing
Weather: no significant weather forecast for this period